Startpagina
METAR-TAF:

METAR-TAF

Vliegvelden :

Pskov, Rusland

breedte: 57-47-06N, lengte: 028-23-54E, hoogte: 47 m

Actueel weer

Dit bericht is 38 minuten geleden gemaakt, om 19:00 UTC
Wind 4 kt uit het zuidwesten
Temperatuur 9°C
Vochtigheid 81%
Druk 1019 hPa
Zicht 10 km of meer
Verspreide wolken op 4600 ft

METAR: ULOO 191900Z 23002MPS 9999 SCT046 09/06 Q1019 R01/090070 NOSIG RMK QFE760

Tijdstip: 22:38 (19:38 UTC)

Verwachting

Dit bericht is 2 uur en het 43 minuten geleden gemaakt, om 16:55 UTC
Verwachting geldig van 19 om 18 UTC tot 20 om 03 UTC
Wind 10 kt uit het westnoordwesten met uitschieters tot 19 kt
Zicht 10 km of meer
Gebroken wolken op 2000 ft
Tijdelijke
van 20 om 00 UTC tot 20 om 03 UTC
Wind 6 kt uit het westnoordwesten
Zicht: 5000 m
Gebroken wolken op 1100 ft
nevel

TAF: ULOO 191655Z 1918/2003 30005G10MPS 9999 BKN020 TEMPO 2000/2003 29003MPS 5000 BR BKN011

Waarnemingen en weersverwachtingen van meer dan 4000 vliegvelden (METAR en TAF).

De beschikbare stations zijn de gele en rode punten op de kaart.

Ga met uw muis naar het station om de naam te zien.

Klik dan om waarnemingen en weersverwachtingen te zien.

kaart wijzigen: klik op de groene knoppen met een zwart kruis om in te zoomen, op de groene knop met een streepje om uit te zoomen of op de groene pijlen voor aangrenzende kaarten.


METAR-TAF: